AIRPORT ID: Y14

DATE: 2023-11-29 ZULU TIME: 10.55 LOCAL TIME: 4.55


METAR KY14 291055Z AUTO 00000KT 10SM M02/M06 A2986

ALTIMETER: A2986 Q1011

DENSITY ALT: 0 Ft

WIND DIRECT: 280

WIND SPEED: 1 Gust

WIND CONDITIONS:

VISIBILTY: 10SM 9999M

TEMPERATURE: 28 F -2 C

DEW POINT: 22 F -6 C

HUMID: 79%

LCL: 1,000-3,000 feet

RADIO CHECK: 0

ADVISARIES: 0

GREETINGS: 0

CONVERSATIONS: 0